sensor_id;sensor_type;location;lat;lon;timestamp;P1;durP1;ratioP1;P2;durP2;ratioP2
64199;SDS011;50516;52.272;5.136;2023-09-19T00:00:19;12.30;;;3.17;;
64199;SDS011;50516;52.272;5.136;2023-09-19T00:02:57;9.05;;;2.65;;
64199;SDS011;50516;52.272;5.136;2023-09-19T00:05:26;6.63;;;3.05;;
64199;SDS011;50516;52.272;5.136;2023-09-19T00:07:53;10.75;;;2.92;;
64199;SDS011;50516;52.272;5.136;2023-09-19T00:10:22;6.00;;;2.70;;
64199;SDS011;50516;52.272;5.136;2023-09-19T00:12:52;10.65;;;2.85;;
64199;SDS011;50516;52.272;5.136;2023-09-19T00:15:20;7.78;;;2.70;;
64199;SDS011;50516;52.272;5.136;2023-09-19T00:17:46;9.23;;;2.85;;
64199;SDS011;50516;52.272;5.136;2023-09-19T00:20:12;8.02;;;2.97;;
64199;SDS011;50516;52.272;5.136;2023-09-19T00:22:41;12.63;;;4.32;;
64199;SDS011;50516;52.272;5.136;2023-09-19T00:25:10;11.65;;;3.05;;
64199;SDS011;50516;52.272;5.136;2023-09-19T00:27:37;9.63;;;2.80;;
64199;SDS011;50516;52.272;5.136;2023-09-19T00:30:11;11.70;;;3.70;;
64199;SDS011;50516;52.272;5.136;2023-09-19T00:32:46;13.27;;;2.88;;
64199;SDS011;50516;52.272;5.136;2023-09-19T00:35:16;13.68;;;2.50;;
64199;SDS011;50516;52.272;5.136;2023-09-19T00:37:41;28.77;;;4.65;;
64199;SDS011;50516;52.272;5.136;2023-09-19T00:40:07;11.45;;;3.63;;
64199;SDS011;50516;52.272;5.136;2023-09-19T00:42:41;10.40;;;2.97;;
64199;SDS011;50516;52.272;5.136;2023-09-19T00:45:07;8.82;;;3.00;;
64199;SDS011;50516;52.272;5.136;2023-09-19T00:47:36;7.55;;;3.35;;
64199;SDS011;50516;52.272;5.136;2023-09-19T00:50:02;9.82;;;2.75;;
64199;SDS011;50516;52.272;5.136;2023-09-19T00:52:33;10.48;;;3.13;;
64199;SDS011;50516;52.272;5.136;2023-09-19T00:55:01;7.72;;;2.78;;
64199;SDS011;50516;52.272;5.136;2023-09-19T00:57:27;8.40;;;2.60;;
64199;SDS011;50516;52.272;5.136;2023-09-19T00:59:57;8.48;;;3.10;;
64199;SDS011;50516;52.272;5.136;2023-09-19T01:02:24;6.75;;;2.72;;
64199;SDS011;50516;52.272;5.136;2023-09-19T01:04:52;9.57;;;2.92;;
64199;SDS011;50516;52.272;5.136;2023-09-19T01:07:18;8.32;;;2.70;;
64199;SDS011;50516;52.272;5.136;2023-09-19T01:09:43;9.02;;;2.30;;
64199;SDS011;50516;52.272;5.136;2023-09-19T01:12:09;13.35;;;2.83;;
64199;SDS011;50516;52.272;5.136;2023-09-19T01:14:56;8.30;;;2.67;;
64199;SDS011;50516;52.272;5.136;2023-09-19T01:17:30;14.52;;;3.35;;
64199;SDS011;50516;52.272;5.136;2023-09-19T01:22:49;7.30;;;2.38;;
64199;SDS011;50516;52.272;5.136;2023-09-19T01:28:20;7.65;;;2.45;;
64199;SDS011;50516;52.272;5.136;2023-09-19T01:31:01;12.43;;;4.50;;
64199;SDS011;50516;52.272;5.136;2023-09-19T01:33:28;7.88;;;3.33;;
64199;SDS011;50516;52.272;5.136;2023-09-19T01:35:58;6.38;;;2.83;;
64199;SDS011;50516;52.272;5.136;2023-09-19T01:38:24;11.77;;;2.80;;
64199;SDS011;50516;52.272;5.136;2023-09-19T01:40:57;15.82;;;3.22;;
64199;SDS011;50516;52.272;5.136;2023-09-19T01:43:41;8.07;;;2.95;;
64199;SDS011;50516;52.272;5.136;2023-09-19T01:46:14;10.32;;;2.90;;
64199;SDS011;50516;52.272;5.136;2023-09-19T01:48:49;12.50;;;2.90;;
64199;SDS011;50516;52.272;5.136;2023-09-19T01:51:40;14.18;;;3.00;;
64199;SDS011;50516;52.272;5.136;2023-09-19T01:54:12;9.23;;;2.85;;
64199;SDS011;50516;52.272;5.136;2023-09-19T01:56:44;8.10;;;2.85;;
64199;SDS011;50516;52.272;5.136;2023-09-19T01:59:24;19.10;;;4.05;;
64199;SDS011;50516;52.272;5.136;2023-09-19T02:01:52;7.78;;;2.88;;
64199;SDS011;50516;52.272;5.136;2023-09-19T02:04:19;8.23;;;3.17;;
64199;SDS011;50516;52.272;5.136;2023-09-19T02:06:44;13.75;;;3.38;;
64199;SDS011;50516;52.272;5.136;2023-09-19T02:09:12;10.52;;;3.35;;
64199;SDS011;50516;52.272;5.136;2023-09-19T02:11:39;9.35;;;2.70;;
64199;SDS011;50516;52.272;5.136;2023-09-19T02:14:04;12.68;;;3.67;;
64199;SDS011;50516;52.272;5.136;2023-09-19T02:16:33;17.20;;;4.63;;
64199;SDS011;50516;52.272;5.136;2023-09-19T02:18:59;9.85;;;3.60;;
64199;SDS011;50516;52.272;5.136;2023-09-19T02:21:25;8.20;;;3.30;;
64199;SDS011;50516;52.272;5.136;2023-09-19T02:23:50;11.00;;;3.55;;
64199;SDS011;50516;52.272;5.136;2023-09-19T02:26:16;9.38;;;3.03;;
64199;SDS011;50516;52.272;5.136;2023-09-19T02:28:43;9.27;;;2.85;;
64199;SDS011;50516;52.272;5.136;2023-09-19T02:31:10;8.25;;;3.22;;
64199;SDS011;50516;52.272;5.136;2023-09-19T02:33:36;10.77;;;2.92;;
64199;SDS011;50516;52.272;5.136;2023-09-19T02:36:02;11.93;;;3.10;;
64199;SDS011;50516;52.272;5.136;2023-09-19T02:38:30;12.00;;;3.08;;
64199;SDS011;50516;52.272;5.136;2023-09-19T02:40:56;10.20;;;3.08;;
64199;SDS011;50516;52.272;5.136;2023-09-19T02:43:22;14.15;;;3.30;;
64199;SDS011;50516;52.272;5.136;2023-09-19T02:45:50;12.65;;;3.65;;
64199;SDS011;50516;52.272;5.136;2023-09-19T02:48:16;13.15;;;3.22;;
64199;SDS011;50516;52.272;5.136;2023-09-19T02:50:42;10.20;;;3.05;;
64199;SDS011;50516;52.272;5.136;2023-09-19T02:53:11;10.43;;;3.15;;
64199;SDS011;50516;52.272;5.136;2023-09-19T02:55:38;10.00;;;3.50;;
64199;SDS011;50516;52.272;5.136;2023-09-19T02:58:05;12.98;;;3.50;;
64199;SDS011;50516;52.272;5.136;2023-09-19T03:00:32;11.38;;;4.10;;
64199;SDS011;50516;52.272;5.136;2023-09-19T03:02:59;15.68;;;3.75;;
64199;SDS011;50516;52.272;5.136;2023-09-19T03:05:24;20.35;;;4.07;;
64199;SDS011;50516;52.272;5.136;2023-09-19T03:07:50;13.43;;;3.50;;
64199;SDS011;50516;52.272;5.136;2023-09-19T03:10:19;11.88;;;3.55;;
64199;SDS011;50516;52.272;5.136;2023-09-19T03:12:46;18.65;;;3.92;;
64199;SDS011;50516;52.272;5.136;2023-09-19T03:15:11;9.63;;;3.65;;
64199;SDS011;50516;52.272;5.136;2023-09-19T03:17:37;14.27;;;5.00;;
64199;SDS011;50516;52.272;5.136;2023-09-19T03:20:02;17.30;;;4.50;;
64199;SDS011;50516;52.272;5.136;2023-09-19T03:22:33;14.88;;;4.25;;
64199;SDS011;50516;52.272;5.136;2023-09-19T03:24:59;13.32;;;3.42;;
64199;SDS011;50516;52.272;5.136;2023-09-19T03:27:25;13.55;;;3.60;;
64199;SDS011;50516;52.272;5.136;2023-09-19T03:29:51;15.85;;;3.28;;
64199;SDS011;50516;52.272;5.136;2023-09-19T03:32:17;17.35;;;4.38;;
64199;SDS011;50516;52.272;5.136;2023-09-19T03:34:42;15.70;;;4.28;;
64199;SDS011;50516;52.272;5.136;2023-09-19T03:37:11;10.48;;;3.53;;
64199;SDS011;50516;52.272;5.136;2023-09-19T03:39:36;16.30;;;3.60;;
64199;SDS011;50516;52.272;5.136;2023-09-19T03:42:02;13.25;;;3.50;;
64199;SDS011;50516;52.272;5.136;2023-09-19T03:44:28;11.13;;;2.97;;
64199;SDS011;50516;52.272;5.136;2023-09-19T03:46:54;11.32;;;3.97;;
64199;SDS011;50516;52.272;5.136;2023-09-19T03:49:21;10.57;;;3.75;;
64199;SDS011;50516;52.272;5.136;2023-09-19T03:51:46;11.65;;;3.45;;
64199;SDS011;50516;52.272;5.136;2023-09-19T03:54:12;18.60;;;4.75;;
64199;SDS011;50516;52.272;5.136;2023-09-19T03:56:37;19.13;;;3.70;;
64199;SDS011;50516;52.272;5.136;2023-09-19T03:59:03;13.25;;;3.30;;
64199;SDS011;50516;52.272;5.136;2023-09-19T04:01:28;17.50;;;3.75;;
64199;SDS011;50516;52.272;5.136;2023-09-19T04:03:56;14.73;;;4.30;;
64199;SDS011;50516;52.272;5.136;2023-09-19T04:06:22;9.45;;;3.10;;
64199;SDS011;50516;52.272;5.136;2023-09-19T04:08:47;17.88;;;3.88;;
64199;SDS011;50516;52.272;5.136;2023-09-19T04:11:13;15.95;;;3.88;;
64199;SDS011;50516;52.272;5.136;2023-09-19T04:13:39;11.35;;;3.28;;
64199;SDS011;50516;52.272;5.136;2023-09-19T04:16:04;9.45;;;2.95;;
64199;SDS011;50516;52.272;5.136;2023-09-19T04:18:31;16.13;;;3.53;;
64199;SDS011;50516;52.272;5.136;2023-09-19T04:20:58;16.25;;;3.75;;
64199;SDS011;50516;52.272;5.136;2023-09-19T04:23:24;16.02;;;4.13;;
64199;SDS011;50516;52.272;5.136;2023-09-19T04:25:50;12.88;;;3.42;;
64199;SDS011;50516;52.272;5.136;2023-09-19T04:28:15;12.65;;;3.80;;
64199;SDS011;50516;52.272;5.136;2023-09-19T04:30:40;20.13;;;4.43;;
64199;SDS011;50516;52.272;5.136;2023-09-19T04:33:06;10.35;;;3.33;;
64199;SDS011;50516;52.272;5.136;2023-09-19T04:35:31;15.07;;;3.70;;
64199;SDS011;50516;52.272;5.136;2023-09-19T04:37:57;14.85;;;3.30;;
64199;SDS011;50516;52.272;5.136;2023-09-19T04:40:22;12.15;;;2.97;;
64199;SDS011;50516;52.272;5.136;2023-09-19T04:42:56;11.80;;;4.00;;
64199;SDS011;50516;52.272;5.136;2023-09-19T04:45:22;15.65;;;4.28;;
64199;SDS011;50516;52.272;5.136;2023-09-19T04:47:48;12.80;;;3.88;;
64199;SDS011;50516;52.272;5.136;2023-09-19T04:50:13;14.30;;;3.65;;
64199;SDS011;50516;52.272;5.136;2023-09-19T04:52:42;11.60;;;3.58;;
64199;SDS011;50516;52.272;5.136;2023-09-19T04:55:10;15.75;;;3.55;;
64199;SDS011;50516;52.272;5.136;2023-09-19T04:57:49;10.98;;;3.30;;
64199;SDS011;50516;52.272;5.136;2023-09-19T05:00:19;12.75;;;3.70;;
64199;SDS011;50516;52.272;5.136;2023-09-19T05:02:49;19.08;;;3.72;;
64199;SDS011;50516;52.272;5.136;2023-09-19T05:05:17;12.05;;;3.38;;
64199;SDS011;50516;52.272;5.136;2023-09-19T05:07:43;17.92;;;3.92;;
64199;SDS011;50516;52.272;5.136;2023-09-19T05:10:09;9.77;;;3.63;;
64199;SDS011;50516;52.272;5.136;2023-09-19T05:12:36;12.63;;;3.80;;
64199;SDS011;50516;52.272;5.136;2023-09-19T05:15:05;16.92;;;3.92;;
64199;SDS011;50516;52.272;5.136;2023-09-19T05:17:32;16.80;;;3.78;;
64199;SDS011;50516;52.272;5.136;2023-09-19T05:19:58;10.07;;;3.38;;
64199;SDS011;50516;52.272;5.136;2023-09-19T05:22:23;18.10;;;3.78;;
64199;SDS011;50516;52.272;5.136;2023-09-19T05:24:54;10.80;;;4.10;;
64199;SDS011;50516;52.272;5.136;2023-09-19T05:27:20;17.27;;;3.55;;
64199;SDS011;50516;52.272;5.136;2023-09-19T05:29:46;14.25;;;3.38;;
64199;SDS011;50516;52.272;5.136;2023-09-19T05:32:11;15.27;;;4.22;;
64199;SDS011;50516;52.272;5.136;2023-09-19T05:34:37;12.52;;;3.70;;
64199;SDS011;50516;52.272;5.136;2023-09-19T05:37:03;13.50;;;4.03;;
64199;SDS011;50516;52.272;5.136;2023-09-19T05:39:30;12.15;;;3.22;;
64199;SDS011;50516;52.272;5.136;2023-09-19T05:41:55;18.60;;;4.93;;
64199;SDS011;50516;52.272;5.136;2023-09-19T05:44:22;13.32;;;3.38;;
64199;SDS011;50516;52.272;5.136;2023-09-19T05:46:47;13.57;;;3.40;;
64199;SDS011;50516;52.272;5.136;2023-09-19T05:49:13;10.50;;;3.15;;
64199;SDS011;50516;52.272;5.136;2023-09-19T05:51:38;12.80;;;3.95;;
64199;SDS011;50516;52.272;5.136;2023-09-19T05:54:04;15.98;;;3.55;;
64199;SDS011;50516;52.272;5.136;2023-09-19T05:56:30;14.38;;;4.00;;
64199;SDS011;50516;52.272;5.136;2023-09-19T05:58:56;9.80;;;3.60;;
64199;SDS011;50516;52.272;5.136;2023-09-19T06:01:21;13.55;;;3.33;;
64199;SDS011;50516;52.272;5.136;2023-09-19T06:03:47;11.95;;;3.30;;
64199;SDS011;50516;52.272;5.136;2023-09-19T06:06:13;15.60;;;4.00;;
64199;SDS011;50516;52.272;5.136;2023-09-19T06:08:38;9.27;;;2.88;;
64199;SDS011;50516;52.272;5.136;2023-09-19T06:11:04;13.77;;;3.33;;
64199;SDS011;50516;52.272;5.136;2023-09-19T06:13:34;18.45;;;3.90;;
64199;SDS011;50516;52.272;5.136;2023-09-19T06:15:59;10.73;;;4.22;;
64199;SDS011;50516;52.272;5.136;2023-09-19T06:18:29;14.02;;;3.67;;
64199;SDS011;50516;52.272;5.136;2023-09-19T06:20:58;12.90;;;4.85;;
64199;SDS011;50516;52.272;5.136;2023-09-19T06:23:24;19.88;;;4.82;;
64199;SDS011;50516;52.272;5.136;2023-09-19T06:25:52;11.88;;;3.35;;
64199;SDS011;50516;52.272;5.136;2023-09-19T06:28:18;18.70;;;4.32;;
64199;SDS011;50516;52.272;5.136;2023-09-19T06:30:48;12.95;;;3.17;;
64199;SDS011;50516;52.272;5.136;2023-09-19T06:33:14;19.20;;;4.85;;
64199;SDS011;50516;52.272;5.136;2023-09-19T06:35:40;22.15;;;5.00;;
64199;SDS011;50516;52.272;5.136;2023-09-19T06:38:07;17.10;;;3.55;;
64199;SDS011;50516;52.272;5.136;2023-09-19T06:40:33;20.83;;;4.13;;
64199;SDS011;50516;52.272;5.136;2023-09-19T06:42:59;13.73;;;3.97;;
64199;SDS011;50516;52.272;5.136;2023-09-19T06:45:27;16.73;;;4.07;;
64199;SDS011;50516;52.272;5.136;2023-09-19T06:47:53;17.45;;;4.00;;
64199;SDS011;50516;52.272;5.136;2023-09-19T06:50:22;11.43;;;3.55;;
64199;SDS011;50516;52.272;5.136;2023-09-19T06:52:49;16.27;;;3.90;;
64199;SDS011;50516;52.272;5.136;2023-09-19T06:55:16;13.25;;;3.63;;
64199;SDS011;50516;52.272;5.136;2023-09-19T06:57:44;15.25;;;4.07;;
64199;SDS011;50516;52.272;5.136;2023-09-19T07:00:09;18.88;;;5.47;;
64199;SDS011;50516;52.272;5.136;2023-09-19T07:02:59;18.85;;;4.50;;
64199;SDS011;50516;52.272;5.136;2023-09-19T07:05:29;13.13;;;4.18;;
64199;SDS011;50516;52.272;5.136;2023-09-19T07:07:56;12.43;;;3.90;;
64199;SDS011;50516;52.272;5.136;2023-09-19T07:10:24;11.13;;;3.85;;
64199;SDS011;50516;52.272;5.136;2023-09-19T07:13:01;16.35;;;4.20;;
64199;SDS011;50516;52.272;5.136;2023-09-19T07:15:29;15.32;;;4.05;;
64199;SDS011;50516;52.272;5.136;2023-09-19T07:17:58;17.15;;;4.85;;
64199;SDS011;50516;52.272;5.136;2023-09-19T07:20:25;14.32;;;3.90;;
64199;SDS011;50516;52.272;5.136;2023-09-19T07:22:52;16.38;;;3.97;;
64199;SDS011;50516;52.272;5.136;2023-09-19T07:25:17;12.02;;;3.88;;
64199;SDS011;50516;52.272;5.136;2023-09-19T07:27:42;18.13;;;4.05;;
64199;SDS011;50516;52.272;5.136;2023-09-19T07:30:09;17.20;;;4.57;;
64199;SDS011;50516;52.272;5.136;2023-09-19T07:32:36;29.48;;;4.78;;
64199;SDS011;50516;52.272;5.136;2023-09-19T07:35:03;17.33;;;4.50;;
64199;SDS011;50516;52.272;5.136;2023-09-19T07:37:29;10.88;;;3.65;;
64199;SDS011;50516;52.272;5.136;2023-09-19T07:39:58;13.73;;;3.67;;
64199;SDS011;50516;52.272;5.136;2023-09-19T07:42:24;13.27;;;4.22;;
64199;SDS011;50516;52.272;5.136;2023-09-19T07:44:50;12.23;;;3.65;;
64199;SDS011;50516;52.272;5.136;2023-09-19T07:47:16;19.73;;;5.18;;
64199;SDS011;50516;52.272;5.136;2023-09-19T07:49:42;14.80;;;3.97;;
64199;SDS011;50516;52.272;5.136;2023-09-19T07:52:08;15.90;;;4.30;;
64199;SDS011;50516;52.272;5.136;2023-09-19T07:54:34;15.43;;;4.28;;
64199;SDS011;50516;52.272;5.136;2023-09-19T07:57:00;20.25;;;5.43;;
64199;SDS011;50516;52.272;5.136;2023-09-19T07:59:26;13.85;;;4.05;;
64199;SDS011;50516;52.272;5.136;2023-09-19T08:01:51;15.07;;;4.13;;
64199;SDS011;50516;52.272;5.136;2023-09-19T08:04:17;12.15;;;4.32;;
64199;SDS011;50516;52.272;5.136;2023-09-19T08:06:44;14.30;;;5.07;;
64199;SDS011;50516;52.272;5.136;2023-09-19T08:09:11;16.05;;;4.15;;
64199;SDS011;50516;52.272;5.136;2023-09-19T08:11:39;15.68;;;4.70;;
64199;SDS011;50516;52.272;5.136;2023-09-19T08:14:04;17.60;;;4.63;;
64199;SDS011;50516;52.272;5.136;2023-09-19T08:16:31;14.30;;;4.28;;
64199;SDS011;50516;52.272;5.136;2023-09-19T08:18:56;15.85;;;5.07;;
64199;SDS011;50516;52.272;5.136;2023-09-19T08:21:23;20.20;;;4.38;;
64199;SDS011;50516;52.272;5.136;2023-09-19T08:23:49;14.52;;;4.80;;
64199;SDS011;50516;52.272;5.136;2023-09-19T08:26:15;16.60;;;4.00;;
64199;SDS011;50516;52.272;5.136;2023-09-19T08:28:40;20.52;;;4.63;;
64199;SDS011;50516;52.272;5.136;2023-09-19T08:31:06;16.17;;;4.63;;
64199;SDS011;50516;52.272;5.136;2023-09-19T08:33:34;17.52;;;4.50;;
64199;SDS011;50516;52.272;5.136;2023-09-19T08:36:03;13.73;;;4.47;;
64199;SDS011;50516;52.272;5.136;2023-09-19T08:38:33;17.35;;;5.35;;
64199;SDS011;50516;52.272;5.136;2023-09-19T08:40:59;13.50;;;4.13;;
64199;SDS011;50516;52.272;5.136;2023-09-19T08:43:25;15.10;;;4.32;;
64199;SDS011;50516;52.272;5.136;2023-09-19T08:45:53;9.75;;;3.75;;
64199;SDS011;50516;52.272;5.136;2023-09-19T08:48:24;15.85;;;3.97;;
64199;SDS011;50516;52.272;5.136;2023-09-19T08:50:57;20.52;;;4.72;;
64199;SDS011;50516;52.272;5.136;2023-09-19T08:56:17;13.50;;;4.20;;
64199;SDS011;50516;52.272;5.136;2023-09-19T08:58:48;19.55;;;3.88;;
64199;SDS011;50516;52.272;5.136;2023-09-19T09:01:36;18.80;;;4.78;;
64199;SDS011;50516;52.272;5.136;2023-09-19T09:04:04;21.13;;;5.03;;
64199;SDS011;50516;52.272;5.136;2023-09-19T09:06:38;17.55;;;4.45;;
64199;SDS011;50516;52.272;5.136;2023-09-19T09:09:04;14.85;;;4.05;;
64199;SDS011;50516;52.272;5.136;2023-09-19T09:11:30;16.00;;;4.07;;
64199;SDS011;50516;52.272;5.136;2023-09-19T09:13:58;14.07;;;3.72;;
64199;SDS011;50516;52.272;5.136;2023-09-19T09:16:23;13.57;;;4.18;;
64199;SDS011;50516;52.272;5.136;2023-09-19T09:18:51;14.77;;;3.38;;
64199;SDS011;50516;52.272;5.136;2023-09-19T09:21:19;17.13;;;4.80;;
64199;SDS011;50516;52.272;5.136;2023-09-19T09:23:46;15.55;;;4.88;;
64199;SDS011;50516;52.272;5.136;2023-09-19T09:26:12;14.32;;;3.90;;
64199;SDS011;50516;52.272;5.136;2023-09-19T09:28:44;19.48;;;4.45;;
64199;SDS011;50516;52.272;5.136;2023-09-19T09:31:23;17.20;;;4.70;;
64199;SDS011;50516;52.272;5.136;2023-09-19T09:33:56;23.55;;;5.07;;
64199;SDS011;50516;52.272;5.136;2023-09-19T09:36:38;16.48;;;4.45;;
64199;SDS011;50516;52.272;5.136;2023-09-19T09:39:06;13.68;;;4.45;;
64199;SDS011;50516;52.272;5.136;2023-09-19T09:41:49;16.45;;;4.25;;
64199;SDS011;50516;52.272;5.136;2023-09-19T09:44:15;20.38;;;4.88;;
64199;SDS011;50516;52.272;5.136;2023-09-19T09:46:46;21.17;;;4.72;;
64199;SDS011;50516;52.272;5.136;2023-09-19T09:51:59;17.02;;;4.38;;
64199;SDS011;50516;52.272;5.136;2023-09-19T09:54:30;16.15;;;4.72;;
64199;SDS011;50516;52.272;5.136;2023-09-19T09:57:07;14.85;;;4.80;;
64199;SDS011;50516;52.272;5.136;2023-09-19T09:59:43;22.25;;;4.82;;
64199;SDS011;50516;52.272;5.136;2023-09-19T10:02:12;15.18;;;3.88;;
64199;SDS011;50516;52.272;5.136;2023-09-19T10:04:39;16.95;;;4.07;;
64199;SDS011;50516;52.272;5.136;2023-09-19T10:07:29;11.90;;;3.50;;
64199;SDS011;50516;52.272;5.136;2023-09-19T10:10:02;19.75;;;4.15;;
64199;SDS011;50516;52.272;5.136;2023-09-19T10:12:48;19.27;;;5.20;;
64199;SDS011;50516;52.272;5.136;2023-09-19T10:15:18;15.25;;;3.97;;
64199;SDS011;50516;52.272;5.136;2023-09-19T10:17:49;12.55;;;3.45;;
64199;SDS011;50516;52.272;5.136;2023-09-19T10:20:19;14.88;;;4.68;;
64199;SDS011;50516;52.272;5.136;2023-09-19T10:23:06;18.88;;;4.38;;
64199;SDS011;50516;52.272;5.136;2023-09-19T10:25:38;13.50;;;3.63;;
64199;SDS011;50516;52.272;5.136;2023-09-19T10:28:08;17.45;;;4.35;;
64199;SDS011;50516;52.272;5.136;2023-09-19T10:30:40;13.10;;;3.78;;
64199;SDS011;50516;52.272;5.136;2023-09-19T10:33:10;15.55;;;4.00;;
64199;SDS011;50516;52.272;5.136;2023-09-19T10:35:38;14.13;;;3.92;;
64199;SDS011;50516;52.272;5.136;2023-09-19T10:38:09;14.50;;;3.75;;
64199;SDS011;50516;52.272;5.136;2023-09-19T10:40:36;11.20;;;4.20;;
64199;SDS011;50516;52.272;5.136;2023-09-19T10:43:05;12.85;;;4.28;;
64199;SDS011;50516;52.272;5.136;2023-09-19T10:45:32;16.63;;;3.78;;
64199;SDS011;50516;52.272;5.136;2023-09-19T10:47:59;13.95;;;3.92;;
64199;SDS011;50516;52.272;5.136;2023-09-19T10:50:25;14.45;;;3.83;;
64199;SDS011;50516;52.272;5.136;2023-09-19T10:52:56;15.30;;;4.90;;
64199;SDS011;50516;52.272;5.136;2023-09-19T10:55:30;12.15;;;4.03;;
64199;SDS011;50516;52.272;5.136;2023-09-19T10:57:57;11.02;;;3.40;;
64199;SDS011;50516;52.272;5.136;2023-09-19T11:03:37;12.27;;;4.13;;
64199;SDS011;50516;52.272;5.136;2023-09-19T11:06:09;11.50;;;2.72;;
64199;SDS011;50516;52.272;5.136;2023-09-19T11:08:51;13.00;;;2.78;;
64199;SDS011;50516;52.272;5.136;2023-09-19T11:30:34;17.35;;;3.33;;
64199;SDS011;50516;52.272;5.136;2023-09-19T11:43:50;9.52;;;2.92;;
64199;SDS011;50516;52.272;5.136;2023-09-19T11:46:24;15.10;;;2.80;;
64199;SDS011;50516;52.272;5.136;2023-09-19T11:48:50;10.32;;;2.80;;
64199;SDS011;50516;52.272;5.136;2023-09-19T11:53:47;7.80;;;3.03;;
64199;SDS011;50516;52.272;5.136;2023-09-19T11:56:16;9.00;;;2.80;;
64199;SDS011;50516;52.272;5.136;2023-09-19T11:58:46;8.70;;;2.60;;
64199;SDS011;50516;52.272;5.136;2023-09-19T12:01:21;11.60;;;3.20;;
64199;SDS011;50516;52.272;5.136;2023-09-19T12:03:54;8.32;;;2.80;;
64199;SDS011;50516;52.272;5.136;2023-09-19T12:06:22;11.35;;;2.70;;
64199;SDS011;50516;52.272;5.136;2023-09-19T12:08:49;9.80;;;2.67;;
64199;SDS011;50516;52.272;5.136;2023-09-19T12:11:16;11.00;;;2.83;;
64199;SDS011;50516;52.272;5.136;2023-09-19T12:13:45;9.57;;;3.00;;
64199;SDS011;50516;52.272;5.136;2023-09-19T12:16:14;7.03;;;2.58;;
64199;SDS011;50516;52.272;5.136;2023-09-19T12:18:41;9.57;;;3.28;;
64199;SDS011;50516;52.272;5.136;2023-09-19T12:21:20;8.52;;;2.55;;
64199;SDS011;50516;52.272;5.136;2023-09-19T12:23:56;8.63;;;2.83;;
64199;SDS011;50516;52.272;5.136;2023-09-19T12:26:40;10.35;;;2.70;;
64199;SDS011;50516;52.272;5.136;2023-09-19T12:29:18;7.80;;;2.67;;
64199;SDS011;50516;52.272;5.136;2023-09-19T12:31:48;10.57;;;3.65;;
64199;SDS011;50516;52.272;5.136;2023-09-19T12:34:27;9.32;;;3.55;;
64199;SDS011;50516;52.272;5.136;2023-09-19T12:37:09;9.73;;;3.10;;
64199;SDS011;50516;52.272;5.136;2023-09-19T12:39:46;8.05;;;2.55;;
64199;SDS011;50516;52.272;5.136;2023-09-19T12:42:17;6.53;;;2.58;;
64199;SDS011;50516;52.272;5.136;2023-09-19T12:44:45;10.70;;;2.72;;
64199;SDS011;50516;52.272;5.136;2023-09-19T12:47:16;7.82;;;2.67;;
64199;SDS011;50516;52.272;5.136;2023-09-19T12:55:20;11.15;;;2.65;;
64199;SDS011;50516;52.272;5.136;2023-09-19T13:00:30;9.53;;;3.07;;
64199;SDS011;50516;52.272;5.136;2023-09-19T13:03:12;7.13;;;2.45;;
64199;SDS011;50516;52.272;5.136;2023-09-19T13:05:50;7.70;;;3.03;;
64199;SDS011;50516;52.272;5.136;2023-09-19T13:08:17;5.47;;;2.20;;
64199;SDS011;50516;52.272;5.136;2023-09-19T13:13:47;9.63;;;2.60;;
64199;SDS011;50516;52.272;5.136;2023-09-19T13:16:14;6.68;;;2.95;;
64199;SDS011;50516;52.272;5.136;2023-09-19T13:18:51;10.20;;;2.40;;
64199;SDS011;50516;52.272;5.136;2023-09-19T13:21:28;8.85;;;2.90;;
64199;SDS011;50516;52.272;5.136;2023-09-19T13:24:20;5.57;;;2.28;;
64199;SDS011;50516;52.272;5.136;2023-09-19T13:26:52;7.30;;;2.70;;
64199;SDS011;50516;52.272;5.136;2023-09-19T13:29:18;11.85;;;2.85;;
64199;SDS011;50516;52.272;5.136;2023-09-19T13:31:47;11.18;;;2.75;;
64199;SDS011;50516;52.272;5.136;2023-09-19T13:34:13;6.40;;;2.97;;
64199;SDS011;50516;52.272;5.136;2023-09-19T13:36:41;8.00;;;2.63;;
64199;SDS011;50516;52.272;5.136;2023-09-19T13:39:07;5.40;;;2.40;;
64199;SDS011;50516;52.272;5.136;2023-09-19T13:41:35;7.65;;;2.40;;
64199;SDS011;50516;52.272;5.136;2023-09-19T13:44:04;5.97;;;2.53;;
64199;SDS011;50516;52.272;5.136;2023-09-19T13:46:30;7.95;;;2.33;;
64199;SDS011;50516;52.272;5.136;2023-09-19T13:48:58;11.80;;;3.05;;
64199;SDS011;50516;52.272;5.136;2023-09-19T13:51:24;10.95;;;3.05;;
64199;SDS011;50516;52.272;5.136;2023-09-19T13:53:51;10.95;;;3.35;;
64199;SDS011;50516;52.272;5.136;2023-09-19T13:56:16;6.15;;;2.35;;
64199;SDS011;50516;52.272;5.136;2023-09-19T13:58:41;6.55;;;2.60;;
64199;SDS011;50516;52.272;5.136;2023-09-19T14:01:07;5.60;;;2.30;;
64199;SDS011;50516;52.272;5.136;2023-09-19T14:03:37;11.23;;;3.03;;
64199;SDS011;50516;52.272;5.136;2023-09-19T14:06:03;9.50;;;2.63;;
64199;SDS011;50516;52.272;5.136;2023-09-19T14:08:28;6.22;;;2.13;;
64199;SDS011;50516;52.272;5.136;2023-09-19T14:10:54;8.55;;;2.67;;
64199;SDS011;50516;52.272;5.136;2023-09-19T14:13:19;4.75;;;2.53;;
64199;SDS011;50516;52.272;5.136;2023-09-19T14:15:45;10.88;;;3.17;;
64199;SDS011;50516;52.272;5.136;2023-09-19T14:18:11;7.38;;;2.40;;
64199;SDS011;50516;52.272;5.136;2023-09-19T14:20:37;10.32;;;3.45;;
64199;SDS011;50516;52.272;5.136;2023-09-19T14:23:05;9.23;;;2.80;;
64199;SDS011;50516;52.272;5.136;2023-09-19T14:25:31;13.80;;;3.42;;
64199;SDS011;50516;52.272;5.136;2023-09-19T14:27:59;14.85;;;3.33;;
64199;SDS011;50516;52.272;5.136;2023-09-19T14:30:24;7.90;;;2.88;;
64199;SDS011;50516;52.272;5.136;2023-09-19T14:32:50;12.07;;;3.20;;
64199;SDS011;50516;52.272;5.136;2023-09-19T14:35:17;8.63;;;3.15;;
64199;SDS011;50516;52.272;5.136;2023-09-19T14:37:42;10.35;;;3.92;;
64199;SDS011;50516;52.272;5.136;2023-09-19T14:40:08;6.80;;;2.65;;
64199;SDS011;50516;52.272;5.136;2023-09-19T14:42:38;8.65;;;3.00;;
64199;SDS011;50516;52.272;5.136;2023-09-19T14:45:04;9.07;;;3.10;;
64199;SDS011;50516;52.272;5.136;2023-09-19T14:47:31;8.93;;;3.38;;
64199;SDS011;50516;52.272;5.136;2023-09-19T14:49:58;12.60;;;3.65;;
64199;SDS011;50516;52.272;5.136;2023-09-19T14:52:24;11.88;;;3.50;;
64199;SDS011;50516;52.272;5.136;2023-09-19T14:54:52;10.13;;;3.00;;
64199;SDS011;50516;52.272;5.136;2023-09-19T14:57:18;8.13;;;3.08;;
64199;SDS011;50516;52.272;5.136;2023-09-19T14:59:44;8.75;;;3.50;;
64199;SDS011;50516;52.272;5.136;2023-09-19T15:02:09;7.78;;;3.20;;
64199;SDS011;50516;52.272;5.136;2023-09-19T15:04:34;11.65;;;4.13;;
64199;SDS011;50516;52.272;5.136;2023-09-19T15:07:05;11.18;;;3.40;;
64199;SDS011;50516;52.272;5.136;2023-09-19T15:09:31;9.75;;;3.45;;
64199;SDS011;50516;52.272;5.136;2023-09-19T15:11:58;14.43;;;3.67;;
64199;SDS011;50516;52.272;5.136;2023-09-19T15:14:23;8.10;;;3.40;;
64199;SDS011;50516;52.272;5.136;2023-09-19T15:16:50;10.90;;;3.67;;
64199;SDS011;50516;52.272;5.136;2023-09-19T15:19:17;10.55;;;4.68;;
64199;SDS011;50516;52.272;5.136;2023-09-19T15:21:43;9.02;;;3.75;;
64199;SDS011;50516;52.272;5.136;2023-09-19T15:24:09;10.00;;;3.22;;
64199;SDS011;50516;52.272;5.136;2023-09-19T15:26:35;12.40;;;4.93;;
64199;SDS011;50516;52.272;5.136;2023-09-19T15:29:04;9.85;;;3.30;;
64199;SDS011;50516;52.272;5.136;2023-09-19T15:31:33;12.52;;;3.83;;
64199;SDS011;50516;52.272;5.136;2023-09-19T15:33:58;7.05;;;3.30;;
64199;SDS011;50516;52.272;5.136;2023-09-19T15:36:24;14.90;;;4.53;;
64199;SDS011;50516;52.272;5.136;2023-09-19T15:39:02;9.43;;;3.25;;
64199;SDS011;50516;52.272;5.136;2023-09-19T15:41:31;14.90;;;3.85;;
64199;SDS011;50516;52.272;5.136;2023-09-19T15:43:57;13.70;;;3.53;;